Time,TemperatureF,DewpointF,PressureIn,WindDirection,WindDirectionDegrees,WindSpeedMPH,WindSpeedGustMPH,Humidity,HourlyPrecipIn,Conditions,Clouds,dailyrainin,SoftwareType,DateUTC
2013-02-18 00:02:00,30.4,19.8,28.77,SE,135,4.0,11.0,64,0.00,,,0.00,meteohub,2013-02-18 06:02:00,
2013-02-18 00:07:00,30.2,19.9,28.74,SE,135,4.0,13.0,65,0.00,,,0.00,meteohub,2013-02-18 06:07:00,
2013-02-18 00:12:00,30.2,19.9,28.74,South,180,2.0,13.0,65,0.00,,,0.00,meteohub,2013-02-18 06:12:00,
2013-02-18 00:17:00,30.4,20.1,28.74,SE,135,7.0,9.0,65,0.00,,,0.00,meteohub,2013-02-18 06:17:00,
2013-02-18 00:22:00,30.4,20.1,28.71,SSE,158,4.0,10.0,65,0.00,,,0.00,meteohub,2013-02-18 06:22:00,
2013-02-18 00:27:00,30.6,20.3,28.71,ESE,112,8.0,10.0,65,0.00,,,0.00,meteohub,2013-02-18 06:27:00,
2013-02-18 00:32:00,30.6,20.3,28.74,SE,135,6.0,10.0,65,0.00,,,0.00,meteohub,2013-02-18 06:32:00,
2013-02-18 00:37:00,30.6,19.9,28.74,SSE,158,4.0,10.0,64,0.00,,,0.00,meteohub,2013-02-18 06:37:00,
2013-02-18 00:42:00,30.7,19.9,28.74,SE,135,3.0,10.0,64,0.00,,,0.00,meteohub,2013-02-18 06:42:00,
2013-02-18 00:47:00,30.7,19.9,28.74,SE,135,3.0,8.0,64,0.00,,,0.00,meteohub,2013-02-18 06:47:00,
2013-02-18 00:52:00,30.7,19.9,28.74,SSE,158,6.0,8.0,64,0.00,,,0.00,meteohub,2013-02-18 06:52:00,
2013-02-18 00:57:00,30.7,19.9,28.74,SSE,158,4.0,10.0,64,0.00,,,0.00,meteohub,2013-02-18 06:57:00,
2013-02-18 01:02:00,30.6,19.9,28.71,SE,135,5.0,10.0,64,0.00,,,0.00,meteohub,2013-02-18 07:02:00,
2013-02-18 01:07:00,30.6,19.9,28.71,ESE,112,3.0,10.0,64,0.00,,,0.00,meteohub,2013-02-18 07:07:00,
2013-02-18 01:12:00,30.6,19.9,28.71,SE,135,4.0,7.0,64,0.00,,,0.00,meteohub,2013-02-18 07:12:00,
2013-02-18 01:17:00,30.4,20.1,28.74,SE,135,4.0,9.0,65,0.00,,,0.00,meteohub,2013-02-18 07:17:00,
2013-02-18 01:22:00,30.2,19.9,28.74,SSE,158,3.0,9.0,65,0.00,,,0.00,meteohub,2013-02-18 07:22:00,
2013-02-18 01:27:00,30.2,19.9,28.74,SE,135,2.0,9.0,65,0.00,,,0.00,meteohub,2013-02-18 07:27:00,
2013-02-18 01:32:00,30.2,20.3,28.71,SE,135,3.0,9.0,66,0.00,,,0.00,meteohub,2013-02-18 07:32:00,
2013-02-18 01:37:00,30.0,20.1,28.71,SSE,158,3.0,6.0,66,0.00,,,0.00,meteohub,2013-02-18 07:37:00,
2013-02-18 01:42:00,30.0,20.1,28.71,SE,135,9.0,9.0,66,0.00,,,0.00,meteohub,2013-02-18 07:42:00,
2013-02-18 01:47:00,30.2,20.7,28.69,SSE,158,3.0,7.0,67,0.00,,,0.00,meteohub,2013-02-18 07:47:00,
2013-02-18 01:52:00,30.2,20.7,28.69,SSE,158,2.0,9.0,67,0.00,,,0.00,meteohub,2013-02-18 07:52:00,
2013-02-18 01:57:00,30.0,20.1,28.69,SSE,158,3.0,9.0,66,0.00,,,0.00,meteohub,2013-02-18 07:57:00,
2013-02-18 02:02:00,30.2,20.7,28.69,SE,135,5.0,6.0,67,0.00,,,0.00,meteohub,2013-02-18 08:02:00,
2013-02-18 02:07:00,30.2,20.7,28.71,SE,135,4.0,9.0,67,0.00,,,0.00,meteohub,2013-02-18 08:07:00,
2013-02-18 02:12:00,30.4,20.8,28.71,SSW,202,5.0,9.0,67,0.00,,,0.00,meteohub,2013-02-18 08:12:00,
2013-02-18 02:17:00,30.2,20.7,28.71,SSW,202,3.0,9.0,67,0.00,,,0.00,meteohub,2013-02-18 08:17:00,
2013-02-18 02:22:00,30.4,20.8,28.71,South,180,5.0,7.0,67,0.00,,,0.00,meteohub,2013-02-18 08:22:00,
2013-02-18 02:27:00,30.6,21.0,28.71,SE,135,2.0,7.0,67,0.00,,,0.00,meteohub,2013-02-18 08:27:00,
2013-02-18 02:32:00,30.6,21.0,28.71,SSW,202,3.0,7.0,67,0.00,,,0.00,meteohub,2013-02-18 08:32:00,
2013-02-18 02:37:00,30.4,20.8,28.69,South,180,5.0,7.0,67,0.00,,,0.00,meteohub,2013-02-18 08:37:00,
2013-02-18 02:42:00,30.2,21.0,28.69,South,180,5.0,7.0,68,0.00,,,0.00,meteohub,2013-02-18 08:42:00,
2013-02-18 02:47:00,30.2,21.0,28.69,SSE,158,3.0,6.0,68,0.00,,,0.00,meteohub,2013-02-18 08:47:00,
2013-02-18 02:52:00,30.2,21.0,28.69,SSE,158,2.0,6.0,68,0.00,,,0.00,meteohub,2013-02-18 08:52:00,
2013-02-18 02:57:00,30.2,21.0,28.69,SE,135,4.0,5.0,68,0.00,,,0.00,meteohub,2013-02-18 08:57:00,
2013-02-18 03:02:00,30.0,21.0,28.69,SSW,202,0.0,5.0,69,0.00,,,0.00,meteohub,2013-02-18 09:02:00,
2013-02-18 03:07:00,30.2,21.2,28.69,SSE,158,5.0,5.0,69,0.00,,,0.00,meteohub,2013-02-18 09:07:00,
2013-02-18 03:12:00,30.2,21.2,28.69,SSE,158,3.0,5.0,69,0.00,,,0.00,meteohub,2013-02-18 09:12:00,
2013-02-18 03:17:00,30.4,21.4,28.69,SSW,202,3.0,5.0,69,0.00,,,0.00,meteohub,2013-02-18 09:17:00,
2013-02-18 03:22:00,30.4,21.4,28.69,SSW,202,4.0,5.0,69,0.00,,,0.00,meteohub,2013-02-18 09:22:00,
2013-02-18 03:27:00,30.6,21.6,28.69,SW,225,2.0,5.0,69,0.00,,,0.00,meteohub,2013-02-18 09:27:00,
2013-02-18 03:32:00,30.7,21.7,28.69,South,180,2.0,5.0,69,0.00,,,0.00,meteohub,2013-02-18 09:32:00,
2013-02-18 03:37:00,30.9,21.9,28.69,South,180,1.0,4.0,69,0.00,,,0.00,meteohub,2013-02-18 09:37:00,
2013-02-18 03:42:00,31.1,22.1,28.69,SSW,202,3.0,6.0,69,0.00,,,0.00,meteohub,2013-02-18 09:42:00,
2013-02-18 03:47:00,31.1,22.1,28.69,SSW,202,3.0,6.0,69,0.00,,,0.00,meteohub,2013-02-18 09:47:00,
2013-02-18 03:52:00,31.1,22.1,28.69,SW,225,1.0,6.0,69,0.00,,,0.00,meteohub,2013-02-18 09:52:00,
2013-02-18 03:57:00,31.1,22.1,28.69,SSE,158,4.0,6.0,69,0.00,,,0.00,meteohub,2013-02-18 09:57:00,
2013-02-18 04:02:00,31.1,22.1,28.69,SSW,202,3.0,6.0,69,0.00,,,0.00,meteohub,2013-02-18 10:02:00,
2013-02-18 04:07:00,31.1,22.1,28.69,South,180,3.0,5.0,69,0.00,,,0.00,meteohub,2013-02-18 10:07:00,
2013-02-18 04:12:00,31.1,22.5,28.69,SSW,202,2.0,5.0,70,0.00,,,0.00,meteohub,2013-02-18 10:12:00,
2013-02-18 04:17:00,31.1,22.5,28.69,South,180,2.0,5.0,70,0.00,,,0.00,meteohub,2013-02-18 10:17:00,
2013-02-18 04:22:00,31.1,22.5,28.69,SSE,158,2.0,5.0,70,0.00,,,0.00,meteohub,2013-02-18 10:22:00,
2013-02-18 04:27:00,31.1,22.8,28.69,SSW,202,3.0,5.0,71,0.00,,,0.00,meteohub,2013-02-18 10:27:00,
2013-02-18 04:32:00,31.1,22.8,28.69,SW,225,3.0,5.0,71,0.00,,,0.00,meteohub,2013-02-18 10:32:00,
2013-02-18 04:37:00,30.9,22.6,28.69,South,180,1.0,5.0,71,0.00,,,0.00,meteohub,2013-02-18 10:37:00,
2013-02-18 04:42:00,30.9,23.0,28.69,South,180,2.0,5.0,72,0.00,,,0.00,meteohub,2013-02-18 10:42:00,
2013-02-18 04:47:00,30.9,23.0,28.69,SSE,158,3.0,4.0,72,0.00,,,0.00,meteohub,2013-02-18 10:47:00,
2013-02-18 04:52:00,30.9,23.4,28.69,South,180,2.0,6.0,73,0.00,,,0.00,meteohub,2013-02-18 10:52:00,
2013-02-18 04:57:00,30.9,23.4,28.69,South,180,3.0,6.0,73,0.00,,,0.00,meteohub,2013-02-18 10:57:00,
2013-02-18 05:02:00,30.7,23.2,28.69,South,180,1.0,6.0,73,0.00,,,0.00,meteohub,2013-02-18 11:02:00,
2013-02-18 05:07:00,30.6,23.0,28.69,South,180,1.0,3.0,73,0.00,,,0.00,meteohub,2013-02-18 11:07:00,
2013-02-18 05:12:00,30.4,22.8,28.69,South,180,2.0,3.0,73,0.00,,,0.00,meteohub,2013-02-18 11:12:00,
2013-02-18 05:17:00,30.6,23.4,28.69,South,180,3.0,3.0,74,0.00,,,0.00,meteohub,2013-02-18 11:17:00,
2013-02-18 05:22:00,30.6,23.5,28.69,SSW,202,2.0,3.0,75,0.00,,,0.00,meteohub,2013-02-18 11:22:00,
2013-02-18 05:27:00,30.6,23.5,28.69,SW,225,3.0,3.0,75,0.00,,,0.00,meteohub,2013-02-18 11:27:00,
2013-02-18 05:32:00,30.4,23.4,28.69,SW,225,0.0,4.0,75,0.00,,,0.00,meteohub,2013-02-18 11:32:00,
2013-02-18 05:37:00,30.4,23.7,28.69,SW,225,3.0,4.0,76,0.00,,,0.00,meteohub,2013-02-18 11:37:00,
2013-02-18 05:43:00,30.6,24.3,28.69,SSW,202,4.0,4.0,77,0.00,,,0.00,meteohub,2013-02-18 11:43:00,
2013-02-18 05:48:00,30.6,24.3,28.66,SW,225,4.0,4.0,77,0.00,,,0.00,meteohub,2013-02-18 11:48:00,
2013-02-18 05:53:00,30.7,24.6,28.66,SW,225,2.0,4.0,78,0.00,,,0.00,meteohub,2013-02-18 11:53:00,
2013-02-18 05:58:00,30.6,24.6,28.66,SW,225,4.0,5.0,78,0.00,,,0.00,meteohub,2013-02-18 11:58:00,
2013-02-18 06:03:00,30.7,25.0,28.69,SW,225,4.0,5.0,79,0.00,,,0.00,meteohub,2013-02-18 12:03:00,
2013-02-18 06:08:00,30.6,24.8,28.69,SW,225,2.0,6.0,79,0.00,,,0.00,meteohub,2013-02-18 12:08:00,
2013-02-18 06:13:00,30.6,24.8,28.69,SSW,202,3.0,6.0,79,0.00,,,0.00,meteohub,2013-02-18 12:13:00,
2013-02-18 06:19:00,30.4,25.0,28.69,SSW,202,3.0,6.0,80,0.00,,,0.00,meteohub,2013-02-18 12:19:00,
2013-02-18 06:24:00,30.2,24.8,28.69,SSW,202,3.0,4.0,80,0.00,,,0.00,meteohub,2013-02-18 12:24:00,
2013-02-18 06:29:00,30.2,25.2,28.69,SW,225,3.0,4.0,81,0.00,,,0.00,meteohub,2013-02-18 12:29:00,
2013-02-18 06:34:00,30.2,25.7,28.69,SSW,202,2.0,4.0,83,0.00,,,0.00,meteohub,2013-02-18 12:34:00,
2013-02-18 06:39:00,30.0,25.5,28.69,SSW,202,3.0,4.0,83,0.00,,,0.00,meteohub,2013-02-18 12:39:00,
2013-02-18 06:44:00,29.8,25.3,28.69,South,180,0.0,4.0,83,0.00,,,0.00,meteohub,2013-02-18 12:44:00,
2013-02-18 06:49:00,29.8,25.0,28.69,SSW,202,0.0,4.0,82,0.00,,,0.00,meteohub,2013-02-18 12:49:00,
2013-02-18 06:54:00,29.5,24.4,28.69,South,180,0.0,3.0,81,0.00,,,0.00,meteohub,2013-02-18 12:54:00,
2013-02-18 07:00:00,29.5,24.6,28.69,SSW,202,3.0,3.0,82,0.00,,,0.00,meteohub,2013-02-18 13:00:00,
2013-02-18 07:05:00,29.3,24.8,28.69,SSW,202,3.0,3.0,83,0.00,,,0.00,meteohub,2013-02-18 13:05:00,
2013-02-18 07:10:00,29.3,25.2,28.69,SW,225,3.0,3.0,84,0.00,,,0.00,meteohub,2013-02-18 13:10:00,
2013-02-18 07:15:00,29.1,25.5,28.69,SW,225,3.0,4.0,86,0.00,,,0.00,meteohub,2013-02-18 13:15:00,
2013-02-18 07:20:00,29.1,25.5,28.69,SW,225,2.0,4.0,86,0.00,,,0.00,meteohub,2013-02-18 13:20:00,
2013-02-18 07:25:00,28.9,25.3,28.69,WSW,248,2.0,4.0,86,0.00,,,0.00,meteohub,2013-02-18 13:25:00,
2013-02-18 07:30:00,29.1,25.5,28.69,SW,225,2.0,3.0,86,0.00,,,0.00,meteohub,2013-02-18 13:30:00,
2013-02-18 07:35:00,29.3,26.2,28.66,SW,225,2.0,4.0,88,0.00,,,0.00,meteohub,2013-02-18 13:35:00,
2013-02-18 07:41:00,29.5,26.6,28.66,SSW,202,2.0,4.0,89,0.00,,,0.00,meteohub,2013-02-18 13:41:00,
2013-02-18 07:46:00,29.7,26.8,28.66,SW,225,2.0,4.0,89,0.00,,,0.00,meteohub,2013-02-18 13:46:00,
2013-02-18 07:51:00,29.8,27.0,28.69,South,180,2.0,4.0,89,0.00,,,0.00,meteohub,2013-02-18 13:51:00,
2013-02-18 07:56:00,30.0,27.0,28.69,SSW,202,3.0,4.0,88,0.00,,,0.00,meteohub,2013-02-18 13:56:00,
2013-02-18 08:01:00,30.0,27.0,28.69,SW,225,3.0,4.0,88,0.00,,,0.00,meteohub,2013-02-18 14:01:00,
2013-02-18 08:06:00,30.0,27.0,28.69,SSW,202,4.0,4.0,88,0.00,,,0.00,meteohub,2013-02-18 14:06:00,
2013-02-18 08:11:00,30.0,26.6,28.69,SW,225,2.0,4.0,87,0.00,,,0.00,meteohub,2013-02-18 14:11:00,
2013-02-18 08:16:00,30.2,26.8,28.69,SW,225,2.0,4.0,87,0.00,,,0.00,meteohub,2013-02-18 14:16:00,
2013-02-18 08:22:00,30.4,27.0,28.69,SW,225,2.0,6.0,87,0.00,,,0.00,meteohub,2013-02-18 14:22:00,
2013-02-18 08:27:00,30.4,27.0,28.69,SW,225,3.0,6.0,87,0.00,,,0.00,meteohub,2013-02-18 14:27:00,
2013-02-18 08:32:00,30.6,27.0,28.69,SSW,202,2.0,6.0,86,0.00,,,0.00,meteohub,2013-02-18 14:32:00,
2013-02-18 08:37:00,30.7,27.1,28.69,WSW,248,4.0,5.0,86,0.00,,,0.00,meteohub,2013-02-18 14:37:00,
2013-02-18 08:42:00,30.9,27.3,28.69,SW,225,3.0,4.0,86,0.00,,,0.00,meteohub,2013-02-18 14:42:00,
2013-02-18 08:47:00,30.9,27.0,28.71,SSW,202,2.0,5.0,85,0.00,,,0.00,meteohub,2013-02-18 14:47:00,
2013-02-18 08:52:00,31.1,27.1,28.71,SSW,202,2.0,5.0,85,0.00,,,0.00,meteohub,2013-02-18 14:52:00,
2013-02-18 08:57:00,31.1,26.8,28.71,SW,225,2.0,4.0,84,0.00,,,0.00,meteohub,2013-02-18 14:57:00,
2013-02-18 09:02:00,31.3,27.0,28.71,WSW,248,3.0,4.0,84,0.00,,,0.00,meteohub,2013-02-18 15:02:00,
2013-02-18 09:07:00,31.6,27.3,28.71,SSW,202,1.0,4.0,84,0.00,,,0.00,meteohub,2013-02-18 15:07:00,
2013-02-18 09:12:00,32.0,27.5,28.71,SSW,202,2.0,4.0,83,0.00,,,0.00,meteohub,2013-02-18 15:12:00,
2013-02-18 09:17:00,32.4,27.9,28.69,SSW,202,3.0,4.0,83,0.00,,,0.00,meteohub,2013-02-18 15:17:00,
2013-02-18 09:22:00,32.7,27.5,28.69,SW,225,3.0,4.0,81,0.00,,,0.00,meteohub,2013-02-18 15:22:00,
2013-02-18 09:27:00,33.3,27.9,28.69,SSW,202,2.0,4.0,80,0.00,,,0.00,meteohub,2013-02-18 15:27:00,
2013-02-18 09:32:00,33.4,27.7,28.69,SSW,202,2.0,4.0,79,0.00,,,0.00,meteohub,2013-02-18 15:32:00,
2013-02-18 09:37:00,33.4,27.0,28.69,SSW,202,1.0,4.0,77,0.00,,,0.00,meteohub,2013-02-18 15:37:00,
2013-02-18 09:42:00,33.4,27.0,28.69,SW,225,3.0,4.0,77,0.00,,,0.00,meteohub,2013-02-18 15:42:00,
2013-02-18 09:47:00,33.3,27.1,28.69,SW,225,3.0,4.0,78,0.00,,,0.00,meteohub,2013-02-18 15:47:00,
2013-02-18 09:52:00,33.6,27.9,28.71,WSW,248,1.0,6.0,79,0.00,,,0.00,meteohub,2013-02-18 15:52:00,
2013-02-18 09:57:00,33.6,28.4,28.71,NW,315,3.0,6.0,81,0.00,,,0.00,meteohub,2013-02-18 15:57:00,
2013-02-18 10:02:00,33.6,28.8,28.71,WNW,292,4.0,6.0,82,0.00,,,0.00,meteohub,2013-02-18 16:02:00,
2013-02-18 10:07:00,33.6,29.7,28.71,West,270,5.0,6.0,85,0.00,,,0.00,meteohub,2013-02-18 16:07:00,
2013-02-18 10:12:00,33.8,30.0,28.71,NW,315,4.0,6.0,86,0.00,,,0.00,meteohub,2013-02-18 16:12:00,
2013-02-18 10:17:00,33.8,30.4,28.71,WNW,292,3.0,6.0,87,0.00,,,0.00,meteohub,2013-02-18 16:17:00,
2013-02-18 10:22:00,33.8,30.6,28.71,West,270,5.0,8.0,88,0.00,,,0.00,meteohub,2013-02-18 16:22:00,
2013-02-18 10:27:00,33.8,30.6,28.71,WSW,248,7.0,8.0,88,0.00,,,0.00,meteohub,2013-02-18 16:27:00,
2013-02-18 10:32:00,34.0,31.1,28.71,WSW,248,8.0,9.0,89,0.00,,,0.00,meteohub,2013-02-18 16:32:00,
2013-02-18 10:37:00,34.0,31.1,28.71,West,270,8.0,9.0,89,0.00,,,0.00,meteohub,2013-02-18 16:37:00,
2013-02-18 10:42:00,34.0,30.7,28.71,West,270,6.0,10.0,88,0.00,,,0.00,meteohub,2013-02-18 16:42:00,
2013-02-18 10:48:00,33.4,28.8,28.74,West,270,11.0,11.0,83,0.00,,,0.00,meteohub,2013-02-18 16:48:00,
2013-02-18 10:53:00,33.1,28.2,28.74,WNW,292,6.0,15.0,82,0.00,,,0.00,meteohub,2013-02-18 16:53:00,
2013-02-18 10:58:00,32.9,28.0,28.74,WNW,292,4.0,15.0,82,0.00,,,0.00,meteohub,2013-02-18 16:58:00,
2013-02-18 11:03:00,32.2,25.9,28.74,WNW,292,6.0,13.0,77,0.00,,,0.00,meteohub,2013-02-18 17:03:00,
2013-02-18 11:08:00,31.6,23.7,28.74,NW,315,9.0,14.0,72,0.00,,,0.00,meteohub,2013-02-18 17:08:00,
2013-02-18 11:13:00,31.1,22.5,28.74,NW,315,6.0,14.0,70,0.00,,,0.00,meteohub,2013-02-18 17:13:00,
2013-02-18 11:19:00,30.7,21.0,28.74,WNW,292,11.0,14.0,67,0.00,,,0.00,meteohub,2013-02-18 17:19:00,
2013-02-18 11:24:00,30.6,21.2,28.74,NW,315,6.0,13.0,68,0.00,,,0.00,meteohub,2013-02-18 17:24:00,
2013-02-18 11:29:00,30.7,21.7,28.74,NNW,338,8.0,15.0,69,0.00,,,0.00,meteohub,2013-02-18 17:29:00,
2013-02-18 11:34:00,30.2,20.7,28.71,WNW,292,7.0,15.0,67,0.00,,,0.00,meteohub,2013-02-18 17:34:00,
2013-02-18 11:39:00,30.2,20.7,28.71,WNW,292,8.0,14.0,67,0.00,,,0.00,meteohub,2013-02-18 17:39:00,
2013-02-18 11:44:00,30.2,20.7,28.71,WNW,292,4.0,14.0,67,0.00,,,0.00,meteohub,2013-02-18 17:44:00,
2013-02-18 11:50:00,29.7,18.7,28.74,WNW,292,13.0,14.0,63,0.00,,,0.00,meteohub,2013-02-18 17:50:00,
2013-02-18 11:55:00,29.7,19.4,28.74,West,270,7.0,14.0,65,0.00,,,0.00,meteohub,2013-02-18 17:55:00,
2013-02-18 12:00:00,29.7,19.4,28.74,WNW,292,9.0,15.0,65,0.00,,,0.00,meteohub,2013-02-18 18:00:00,
2013-02-18 12:05:00,29.3,19.0,28.71,WNW,292,10.0,13.0,65,0.00,,,0.00,meteohub,2013-02-18 18:05:00,
2013-02-18 12:10:00,29.1,18.5,28.71,WNW,292,8.0,13.0,64,0.00,,,0.00,meteohub,2013-02-18 18:10:00,
2013-02-18 12:15:00,28.8,17.1,28.71,WNW,292,4.0,16.0,61,0.00,,,0.00,meteohub,2013-02-18 18:15:00,
2013-02-18 12:20:00,28.6,16.5,28.71,NNE,22,4.0,16.0,60,0.00,,,0.00,meteohub,2013-02-18 18:20:00,
2013-02-18 12:26:00,28.6,16.5,28.71,NNW,338,8.0,16.0,60,0.00,,,0.00,meteohub,2013-02-18 18:26:00,
2013-02-18 12:31:00,28.6,16.9,28.71,NW,315,4.0,16.0,61,0.00,,,0.00,meteohub,2013-02-18 18:31:00,
2013-02-18 12:36:00,27.7,15.6,28.71,WNW,292,8.0,16.0,60,0.00,,,0.00,meteohub,2013-02-18 18:36:00,
2013-02-18 12:41:00,27.3,15.3,28.71,West,270,13.0,17.0,60,0.00,,,0.00,meteohub,2013-02-18 18:41:00,
2013-02-18 12:46:00,27.5,15.4,28.71,NW,315,13.0,17.0,60,0.00,,,0.00,meteohub,2013-02-18 18:46:00,
2013-02-18 12:52:00,27.1,14.7,28.77,NNW,338,12.0,16.0,59,0.00,,,0.00,meteohub,2013-02-18 18:52:00,
2013-02-18 12:57:00,27.1,14.0,28.77,West,270,13.0,17.0,57,0.00,,,0.00,meteohub,2013-02-18 18:57:00,
2013-02-18 13:02:00,26.4,13.3,28.74,West,270,11.0,18.0,57,0.00,,,0.00,meteohub,2013-02-18 19:02:00,
2013-02-18 13:07:00,26.1,12.9,28.74,WNW,292,13.0,18.0,57,0.00,,,0.00,meteohub,2013-02-18 19:07:00,
2013-02-18 13:12:00,25.9,12.7,28.74,NW,315,6.0,18.0,57,0.00,,,0.00,meteohub,2013-02-18 19:12:00,
2013-02-18 13:17:00,25.9,12.7,28.74,West,270,11.0,17.0,57,0.00,,,0.00,meteohub,2013-02-18 19:17:00,
2013-02-18 13:22:00,25.0,11.5,28.74,NW,315,6.0,17.0,56,0.00,,,0.00,meteohub,2013-02-18 19:22:00,
2013-02-18 13:27:00,24.4,11.5,28.74,NW,315,13.0,16.0,57,0.00,,,0.00,meteohub,2013-02-18 19:27:00,
2013-02-18 13:32:00,24.3,11.3,28.74,NNW,338,10.0,15.0,57,0.00,,,0.00,meteohub,2013-02-18 19:32:00,
2013-02-18 13:37:00,24.1,10.8,28.74,West,270,13.0,15.0,56,0.00,,,0.00,meteohub,2013-02-18 19:37:00,
2013-02-18 13:43:00,23.7,9.9,28.74,NW,315,13.0,15.0,55,0.00,,,0.00,meteohub,2013-02-18 19:43:00,
2013-02-18 13:48:00,23.5,9.9,28.77,West,270,9.0,16.0,55,0.00,,,0.00,meteohub,2013-02-18 19:48:00,
2013-02-18 13:53:00,23.9,10.0,28.77,WNW,292,9.0,16.0,55,0.00,,,0.00,meteohub,2013-02-18 19:53:00,
2013-02-18 13:58:00,23.5,9.3,28.77,WNW,292,9.0,15.0,54,0.00,,,0.00,meteohub,2013-02-18 19:58:00,
2013-02-18 14:03:00,23.5,9.3,28.80,WNW,292,11.0,14.0,54,0.00,,,0.00,meteohub,2013-02-18 20:03:00,
2013-02-18 14:09:00,23.5,9.0,28.80,NW,315,10.0,11.0,53,0.00,,,0.00,meteohub,2013-02-18 20:09:00,
2013-02-18 14:14:00,23.4,9.1,28.80,WNW,292,14.0,14.0,54,0.00,,,0.00,meteohub,2013-02-18 20:14:00,
2013-02-18 14:19:00,23.5,9.3,28.80,WNW,292,14.0,14.0,54,0.00,,,0.00,meteohub,2013-02-18 20:19:00,
2013-02-18 14:24:00,23.2,8.6,28.80,WNW,292,11.0,14.0,53,0.00,,,0.00,meteohub,2013-02-18 20:24:00,
2013-02-18 14:29:00,22.6,8.6,28.80,WNW,292,11.0,14.0,54,0.00,,,0.00,meteohub,2013-02-18 20:29:00,
2013-02-18 14:35:00,22.3,8.2,28.80,NW,315,10.0,14.0,54,0.00,,,0.00,meteohub,2013-02-18 20:35:00,
2013-02-18 14:40:00,21.4,7.3,28.80,NW,315,12.0,13.0,54,0.00,,,0.00,meteohub,2013-02-18 20:40:00,
2013-02-18 14:45:00,21.7,7.7,28.80,WNW,292,10.0,12.0,54,0.00,,,0.00,meteohub,2013-02-18 20:45:00,
2013-02-18 14:50:00,21.7,7.7,28.80,WNW,292,15.0,15.0,54,0.00,,,0.00,meteohub,2013-02-18 20:50:00,
2013-02-18 14:55:00,21.2,7.5,28.80,WNW,292,9.0,17.0,55,0.00,,,0.00,meteohub,2013-02-18 20:55:00,
2013-02-18 15:00:00,21.2,7.5,28.80,WSW,248,10.0,17.0,55,0.00,,,0.00,meteohub,2013-02-18 21:00:00,
2013-02-18 15:06:00,20.5,7.0,28.80,WNW,292,9.0,15.0,55,0.00,,,0.00,meteohub,2013-02-18 21:06:00,
2013-02-18 15:11:00,19.9,6.4,28.80,WNW,292,15.0,15.0,55,0.00,,,0.00,meteohub,2013-02-18 21:11:00,
2013-02-18 15:16:00,19.9,6.4,28.80,WNW,292,13.0,15.0,55,0.00,,,0.00,meteohub,2013-02-18 21:16:00,
2013-02-18 15:21:00,19.8,6.3,28.80,WNW,292,13.0,15.0,55,0.00,,,0.00,meteohub,2013-02-18 21:21:00,
2013-02-18 15:26:00,19.2,5.7,28.80,WNW,292,13.0,15.0,55,0.00,,,0.00,meteohub,2013-02-18 21:26:00,
2013-02-18 15:32:00,18.5,5.0,28.83,WNW,292,15.0,15.0,55,0.00,,,0.00,meteohub,2013-02-18 21:32:00,
2013-02-18 15:37:00,18.3,4.8,28.83,WNW,292,13.0,15.0,55,0.00,,,0.00,meteohub,2013-02-18 21:37:00,
2013-02-18 15:42:00,18.3,4.8,28.83,West,270,11.0,15.0,55,0.00,,,0.00,meteohub,2013-02-18 21:42:00,
2013-02-18 15:47:00,18.5,5.0,28.83,WNW,292,15.0,15.0,55,0.00,,,0.00,meteohub,2013-02-18 21:47:00,
2013-02-18 15:53:00,18.3,4.8,28.83,WNW,292,12.0,15.0,55,0.00,,,0.00,meteohub,2013-02-18 21:53:00,
2013-02-18 15:58:00,18.1,4.6,28.83,WNW,292,13.0,15.0,55,0.00,,,0.00,meteohub,2013-02-18 21:58:00,
2013-02-18 16:03:00,17.8,4.8,28.83,NW,315,10.0,15.0,56,0.00,,,0.00,meteohub,2013-02-18 22:03:00,
2013-02-18 16:08:00,17.6,4.6,28.83,West,270,11.0,15.0,56,0.00,,,0.00,meteohub,2013-02-18 22:08:00,
2013-02-18 16:14:00,17.2,4.3,28.83,NW,315,7.0,15.0,56,0.00,,,0.00,meteohub,2013-02-18 22:14:00,
2013-02-18 16:19:00,17.4,4.5,28.86,SSW,202,8.0,14.0,56,0.00,,,0.00,meteohub,2013-02-18 22:19:00,
2013-02-18 16:24:00,17.4,4.5,28.86,WNW,292,8.0,15.0,56,0.00,,,0.00,meteohub,2013-02-18 22:24:00,
2013-02-18 16:29:00,17.2,4.3,28.86,WNW,292,8.0,15.0,56,0.00,,,0.00,meteohub,2013-02-18 22:29:00,
2013-02-18 16:34:00,16.7,3.7,28.86,NW,315,9.0,15.0,56,0.00,,,0.00,meteohub,2013-02-18 22:34:00,
2013-02-18 16:40:00,16.5,3.6,28.86,WNW,292,11.0,17.0,56,0.00,,,0.00,meteohub,2013-02-18 22:40:00,
2013-02-18 16:45:00,16.3,3.4,28.86,West,270,10.0,17.0,56,0.00,,,0.00,meteohub,2013-02-18 22:45:00,
2013-02-18 16:50:00,16.0,3.0,28.83,WNW,292,7.0,15.0,56,0.00,,,0.00,meteohub,2013-02-18 22:50:00,
2013-02-18 16:55:00,15.6,2.7,28.83,WNW,292,11.0,17.0,56,0.00,,,0.00,meteohub,2013-02-18 22:55:00,
2013-02-18 17:00:00,15.3,2.5,28.83,NW,315,10.0,17.0,56,0.00,,,0.00,meteohub,2013-02-18 23:00:00,
2013-02-18 17:06:00,15.1,2.3,28.86,WNW,292,7.0,19.0,56,0.00,,,0.00,meteohub,2013-02-18 23:06:00,
2013-02-18 17:11:00,15.1,2.3,28.86,WNW,292,11.0,19.0,56,0.00,,,0.00,meteohub,2013-02-18 23:11:00,
2013-02-18 17:16:00,14.9,2.1,28.86,WNW,292,15.0,17.0,56,0.00,,,0.00,meteohub,2013-02-18 23:16:00,
2013-02-18 17:21:00,14.7,1.9,28.83,WNW,292,11.0,17.0,56,0.00,,,0.00,meteohub,2013-02-18 23:21:00,
2013-02-18 17:26:00,14.7,2.3,28.83,NW,315,6.0,17.0,57,0.00,,,0.00,meteohub,2013-02-18 23:26:00,
2013-02-18 17:31:00,14.5,2.1,28.83,NW,315,9.0,17.0,57,0.00,,,0.00,meteohub,2013-02-18 23:31:00,
2013-02-18 17:37:00,14.5,2.5,28.83,WNW,292,5.0,11.0,58,0.00,,,0.00,meteohub,2013-02-18 23:37:00,
2013-02-18 17:42:00,14.2,1.4,28.83,NNW,338,11.0,11.0,56,0.00,,,0.00,meteohub,2013-02-18 23:42:00,
2013-02-18 17:47:00,13.8,1.4,28.86,NNW,338,6.0,17.0,57,0.00,,,0.00,meteohub,2013-02-18 23:47:00,
2013-02-18 17:52:00,13.8,1.4,28.86,NW,315,11.0,17.0,57,0.00,,,0.00,meteohub,2013-02-18 23:52:00,
2013-02-18 17:57:00,13.5,1.0,28.86,West,270,4.0,17.0,57,0.00,,,0.00,meteohub,2013-02-18 23:57:00,
2013-02-18 18:02:00,13.5,1.0,28.86,NW,315,12.0,17.0,57,0.00,,,0.00,meteohub,2013-02-19 00:02:00,
2013-02-18 18:08:00,13.3,0.9,28.86,WNW,292,15.0,15.0,57,0.00,,,0.00,meteohub,2013-02-19 00:08:00,
2013-02-18 18:13:00,12.9,0.5,28.86,WNW,292,13.0,15.0,57,0.00,,,0.00,meteohub,2013-02-19 00:13:00,
2013-02-18 18:18:00,12.6,0.3,28.86,NW,315,8.0,15.0,57,0.00,,,0.00,meteohub,2013-02-19 00:18:00,
2013-02-18 18:23:00,12.6,0.3,28.86,NNW,338,6.0,17.0,57,0.00,,,0.00,meteohub,2013-02-19 00:23:00,
2013-02-18 18:29:00,12.4,0.1,28.86,WNW,292,15.0,17.0,57,0.00,,,0.00,meteohub,2013-02-19 00:29:00,
2013-02-18 18:34:00,12.0,-0.2,28.89,NW,315,14.0,17.0,57,0.00,,,0.00,meteohub,2013-02-19 00:34:00,
2013-02-18 18:39:00,12.0,-0.2,28.89,WNW,292,10.0,17.0,57,0.00,,,0.00,meteohub,2013-02-19 00:39:00,
2013-02-18 18:44:00,11.8,-0.4,28.89,WNW,292,8.0,17.0,57,0.00,,,0.00,meteohub,2013-02-19 00:44:00,
2013-02-18 18:49:00,11.7,-0.6,28.89,WNW,292,6.0,17.0,57,0.00,,,0.00,meteohub,2013-02-19 00:49:00,
2013-02-18 18:54:00,11.7,-0.6,28.89,NW,315,5.0,16.0,57,0.00,,,0.00,meteohub,2013-02-19 00:54:00,
2013-02-18 19:00:00,11.3,-0.9,28.89,WNW,292,6.0,10.0,57,0.00,,,0.00,meteohub,2013-02-19 01:00:00,
2013-02-18 19:05:00,11.1,-1.1,28.89,WNW,292,6.0,11.0,57,0.00,,,0.00,meteohub,2013-02-19 01:05:00,
2013-02-18 19:10:00,10.9,-1.3,28.89,NW,315,13.0,13.0,57,0.00,,,0.00,meteohub,2013-02-19 01:10:00,
2013-02-18 19:15:00,10.6,-1.7,28.89,WNW,292,13.0,13.0,57,0.00,,,0.00,meteohub,2013-02-19 01:15:00,
2013-02-18 19:20:00,10.6,-1.7,28.92,NNW,338,8.0,13.0,57,0.00,,,0.00,meteohub,2013-02-19 01:20:00,
2013-02-18 19:25:00,10.2,-2.0,28.92,NW,315,6.0,13.0,57,0.00,,,0.00,meteohub,2013-02-19 01:25:00,
2013-02-18 19:30:00,10.0,-2.2,28.92,West,270,6.0,13.0,57,0.00,,,0.00,meteohub,2013-02-19 01:30:00,
2013-02-18 19:35:00,10.0,-2.2,28.92,NW,315,9.0,9.0,57,0.00,,,0.00,meteohub,2013-02-19 01:35:00,
2013-02-18 19:41:00,9.7,-2.4,28.92,WNW,292,16.0,16.0,57,0.00,,,0.00,meteohub,2013-02-19 01:41:00,
2013-02-18 19:46:00,9.5,-2.6,28.92,WNW,292,8.0,16.0,57,0.00,,,0.00,meteohub,2013-02-19 01:46:00,
2013-02-18 19:51:00,9.5,-2.6,28.92,West,270,7.0,16.0,57,0.00,,,0.00,meteohub,2013-02-19 01:51:00,
2013-02-18 19:56:00,9.3,-2.7,28.92,NNW,338,6.0,16.0,57,0.00,,,0.00,meteohub,2013-02-19 01:56:00,
2013-02-18 20:01:00,9.1,-2.9,28.92,WNW,292,10.0,10.0,57,0.00,,,0.00,meteohub,2013-02-19 02:01:00,
2013-02-18 20:06:00,9.1,-2.9,28.92,WNW,292,6.0,11.0,57,0.00,,,0.00,meteohub,2013-02-19 02:06:00,
2013-02-18 20:11:00,9.1,-2.9,28.92,NW,315,6.0,11.0,57,0.00,,,0.00,meteohub,2013-02-19 02:11:00,
2013-02-18 20:17:00,9.0,-3.1,28.95,WNW,292,12.0,12.0,57,0.00,,,0.00,meteohub,2013-02-19 02:17:00,
2013-02-18 20:21:00,9.1,-2.9,28.95,WNW,292,14.0,14.0,57,0.00,,,0.00,meteohub,2013-02-19 02:21:00,
2013-02-18 20:27:00,9.1,-2.9,28.95,West,270,6.0,15.0,57,0.00,,,0.00,meteohub,2013-02-19 02:27:00,
2013-02-18 20:32:00,9.0,-3.1,28.92,WNW,292,9.0,15.0,57,0.00,,,0.00,meteohub,2013-02-19 02:32:00,
2013-02-18 20:37:00,8.8,-3.3,28.92,NW,315,10.0,15.0,57,0.00,,,0.00,meteohub,2013-02-19 02:37:00,
2013-02-18 20:42:00,8.6,-3.5,28.92,WNW,292,6.0,17.0,57,0.00,,,0.00,meteohub,2013-02-19 02:42:00,
2013-02-18 20:47:00,8.6,-3.5,28.92,WNW,292,5.0,17.0,57,0.00,,,0.00,meteohub,2013-02-19 02:47:00,
2013-02-18 20:52:00,8.6,-3.5,28.92,WNW,292,6.0,17.0,57,0.00,,,0.00,meteohub,2013-02-19 02:52:00,
2013-02-18 20:58:00,8.6,-3.5,28.92,NW,315,8.0,8.0,57,0.00,,,0.00,meteohub,2013-02-19 02:58:00,
2013-02-18 21:03:00,8.4,-3.6,28.89,NW,315,8.0,8.0,57,0.00,,,0.00,meteohub,2013-02-19 03:03:00,
2013-02-18 21:08:00,8.4,-3.6,28.89,West,270,3.0,8.0,57,0.00,,,0.00,meteohub,2013-02-19 03:08:00,
2013-02-18 21:13:00,8.2,-3.8,28.89,WNW,292,6.0,8.0,57,0.00,,,0.00,meteohub,2013-02-19 03:13:00,
2013-02-18 21:18:00,8.1,-4.0,28.92,NNW,338,9.0,9.0,57,0.00,,,0.00,meteohub,2013-02-19 03:18:00,
2013-02-18 21:24:00,8.1,-4.0,28.92,WNW,292,4.0,9.0,57,0.00,,,0.00,meteohub,2013-02-19 03:24:00,
2013-02-18 21:29:00,7.9,-4.2,28.92,WNW,292,5.0,9.0,57,0.00,,,0.00,meteohub,2013-02-19 03:29:00,
2013-02-18 21:34:00,7.9,-4.2,28.92,NNW,338,4.0,9.0,57,0.00,,,0.00,meteohub,2013-02-19 03:34:00,
2013-02-18 21:39:00,7.7,-4.4,28.92,West,270,6.0,9.0,57,0.00,,,0.00,meteohub,2013-02-19 03:39:00,
2013-02-18 21:44:00,7.7,-4.4,28.92,WNW,292,4.0,6.0,57,0.00,,,0.00,meteohub,2013-02-19 03:44:00,
2013-02-18 21:49:00,7.5,-4.5,28.92,NW,315,8.0,8.0,57,0.00,,,0.00,meteohub,2013-02-19 03:49:00,
2013-02-18 21:54:00,7.3,-4.7,28.92,WNW,292,8.0,11.0,57,0.00,,,0.00,meteohub,2013-02-19 03:54:00,
2013-02-18 21:59:00,7.2,-4.9,28.92,West,270,8.0,11.0,57,0.00,,,0.00,meteohub,2013-02-19 03:59:00,
2013-02-18 22:04:00,7.2,-4.9,28.92,WNW,292,9.0,11.0,57,0.00,,,0.00,meteohub,2013-02-19 04:04:00,
2013-02-18 22:10:00,7.2,-4.9,28.92,NW,315,11.0,13.0,57,0.00,,,0.00,meteohub,2013-02-19 04:10:00,
2013-02-18 22:15:00,7.0,-5.1,28.92,NNW,338,5.0,13.0,57,0.00,,,0.00,meteohub,2013-02-19 04:15:00,
2013-02-18 22:20:00,7.0,-5.1,28.92,WNW,292,6.0,12.0,57,0.00,,,0.00,meteohub,2013-02-19 04:20:00,
2013-02-18 22:25:00,6.8,-5.3,28.92,WNW,292,11.0,12.0,57,0.00,,,0.00,meteohub,2013-02-19 04:25:00,
2013-02-18 22:30:00,6.8,-5.3,28.92,NW,315,7.0,11.0,57,0.00,,,0.00,meteohub,2013-02-19 04:30:00,
2013-02-18 22:35:00,6.8,-5.3,28.92,WNW,292,8.0,11.0,57,0.00,,,0.00,meteohub,2013-02-19 04:35:00,
2013-02-18 22:40:00,6.4,-5.4,28.92,NW,315,14.0,14.0,57,0.00,,,0.00,meteohub,2013-02-19 04:40:00,
2013-02-18 22:46:00,6.4,-5.4,28.92,WNW,292,7.0,18.0,57,0.00,,,0.00,meteohub,2013-02-19 04:46:00,
2013-02-18 22:51:00,6.4,-5.4,28.92,WNW,292,7.0,18.0,57,0.00,,,0.00,meteohub,2013-02-19 04:51:00,
2013-02-18 22:56:00,6.3,-5.6,28.92,NW,315,5.0,18.0,57,0.00,,,0.00,meteohub,2013-02-19 04:56:00,
2013-02-18 23:00:00,6.1,-5.8,28.92,NNW,338,6.0,18.0,57,0.00,,,0.00,meteohub,2013-02-19 05:00:00,
2013-02-18 23:01:00,6.1,-5.8,28.92,NNW,338,9.0,11.0,57,0.00,,,0.00,meteohub,2013-02-19 05:01:00,
2013-02-18 23:05:00,6.1,-5.8,28.92,NW,315,6.0,11.0,57,0.00,,,0.00,meteohub,2013-02-19 05:05:00,
2013-02-18 23:10:00,5.9,-6.0,28.92,NW,315,11.0,16.0,57,0.00,,,0.00,meteohub,2013-02-19 05:10:00,
2013-02-18 23:15:00,5.9,-6.0,28.92,NW,315,9.0,16.0,57,0.00,,,0.00,meteohub,2013-02-19 05:15:00,
2013-02-18 23:20:00,5.9,-6.0,28.95,West,270,9.0,17.0,57,0.00,,,0.00,meteohub,2013-02-19 05:20:00,
2013-02-18 23:25:00,5.9,-6.0,28.95,NW,315,6.0,17.0,57,0.00,,,0.00,meteohub,2013-02-19 05:25:00,
2013-02-18 23:31:00,5.9,-6.0,28.95,NW,315,6.0,17.0,57,0.00,,,0.00,meteohub,2013-02-19 05:31:00,
2013-02-18 23:36:00,5.9,-6.0,28.95,NNW,338,5.0,15.0,57,0.00,,,0.00,meteohub,2013-02-19 05:36:00,
2013-02-18 23:41:00,5.9,-6.0,28.95,West,270,4.0,15.0,57,0.00,,,0.00,meteohub,2013-02-19 05:41:00,
2013-02-18 23:46:00,5.9,-6.0,28.95,North,0,4.0,13.0,57,0.00,,,0.00,meteohub,2013-02-19 05:46:00,
2013-02-18 23:51:00,5.9,-6.0,28.95,WNW,292,10.0,13.0,57,0.00,,,0.00,meteohub,2013-02-19 05:51:00,
2013-02-18 23:57:00,5.9,-6.0,28.95,NNW,338,12.0,13.0,57,0.00,,,0.00,meteohub,2013-02-19 05:57:00,